Time;durP1;ratioP1;P1;durP2;ratioP2;P2;SDS_P1;SDS_P2;PMS_P1;PMS_P2;Temp;Humidity;BMP_temperature;BMP_pressure;BME280_temperature;BME280_humidity;BME280_pressure;Samples;Min_cycle;Max_cycle;Signal;HPM_P1;HPM_P2
2023/05/31 00:00:23;;;;;;;8.47;3.07;;;15.50;8.30;;;;;;5008150;28;20463;-64
2023/05/31 00:02:50;;;;;;;9.60;3.30;;;15.50;8.00;;;;;;5008528;28;20478;-65
2023/05/31 00:05:16;;;;;;;8.80;3.30;;;15.40;7.70;;;;;;5007187;28;20495;-64
2023/05/31 00:07:44;;;;;;;6.47;2.70;;;15.40;7.20;;;;;;5011231;28;20987;-65
2023/05/31 00:10:11;;;;;;;7.93;3.30;;;15.40;7.10;;;;;;5010442;28;20472;-65
2023/05/31 00:12:38;;;;;;;7.27;3.10;;;15.40;6.80;;;;;;5009332;28;20475;-63
2023/05/31 00:15:06;;;;;;;5.73;2.20;;;15.40;6.30;;;;;;5008422;28;20503;-63
2023/05/31 00:17:32;;;;;;;8.20;2.60;;;15.40;6.20;;;;;;5009699;28;20471;-63
2023/05/31 00:19:59;;;;;;;8.83;3.40;;;15.30;6.30;;;;;;5008732;28;20834;-63
2023/05/31 00:22:26;;;;;;;5.13;2.20;;;15.30;6.40;;;;;;5008708;28;20510;-63
2023/05/31 00:24:55;;;;;;;7.00;2.13;;;15.30;6.40;;;;;;5005589;28;20479;-62
2023/05/31 00:27:21;;;;;;;6.27;2.80;;;15.30;6.30;;;;;;5008280;28;20479;-63
2023/05/31 00:29:48;;;;;;;10.33;2.97;;;15.30;6.10;;;;;;5007994;28;20467;-63
2023/05/31 00:32:15;;;;;;;5.23;2.20;;;15.20;6.00;;;;;;5007075;28;20480;-63
2023/05/31 00:34:41;;;;;;;6.00;2.43;;;15.20;5.90;;;;;;5007560;28;20493;-62
2023/05/31 00:37:08;;;;;;;7.50;2.60;;;15.20;6.00;;;;;;5009756;28;20464;-62
2023/05/31 00:39:35;;;;;;;7.77;2.77;;;15.10;5.80;;;;;;5007517;28;20835;-63
2023/05/31 00:42:03;;;;;;;11.33;2.60;;;15.10;5.90;;;;;;5006083;28;20468;-63
2023/05/31 00:44:29;;;;;;;6.10;2.20;;;15.00;5.80;;;;;;5004466;28;20476;-63
2023/05/31 00:46:56;;;;;;;6.87;2.63;;;15.00;5.80;;;;;;5008156;28;21184;-62
2023/05/31 00:49:23;;;;;;;7.30;2.70;;;15.00;5.70;;;;;;5010877;28;20527;-63
2023/05/31 00:51:50;;;;;;;7.73;3.10;;;15.00;5.70;;;;;;5008951;28;21137;-63
2023/05/31 00:54:17;;;;;;;8.37;2.67;;;14.90;5.80;;;;;;5007896;28;20484;-62
2023/05/31 00:56:44;;;;;;;8.17;2.70;;;14.90;5.70;;;;;;5009738;28;20463;-63
2023/05/31 00:59:13;;;;;;;10.37;2.70;;;15.00;5.60;;;;;;5009382;28;20466;-63
2023/05/31 01:01:40;;;;;;;5.53;2.43;;;14.90;5.60;;;;;;5005958;28;20491;-63
2023/05/31 01:04:08;;;;;;;6.00;2.67;;;14.90;5.50;;;;;;5009751;28;20463;-63
2023/05/31 01:06:35;;;;;;;9.37;2.40;;;14.90;5.60;;;;;;5008460;28;20455;-63
2023/05/31 01:09:05;;;;;;;6.97;2.60;;;14.90;5.40;;;;;;5009414;28;20467;-63
2023/05/31 01:11:46;;;;;;;7.10;2.10;;;14.80;5.20;;;;;;5007336;28;20470;-63
2023/05/31 01:14:32;;;;;;;5.10;1.80;;;14.80;5.50;;;;;;5006258;28;20479;-63
2023/05/31 01:17:08;;;;;;;5.30;2.17;;;14.70;5.50;;;;;;5007466;28;20467;-63
2023/05/31 01:19:47;;;;;;;7.80;2.20;;;14.80;5.40;;;;;;5009444;28;20464;-63
2023/05/31 01:22:27;;;;;;;6.67;2.67;;;14.80;5.30;;;;;;5006616;28;20547;-63
2023/05/31 01:25:12;;;;;;;7.13;2.70;;;14.70;5.40;;;;;;5007166;28;20927;-63
2023/05/31 01:27:42;;;;;;;6.53;2.53;;;14.70;5.60;;;;;;5007857;28;20466;-63
2023/05/31 01:30:10;;;;;;;6.70;3.00;;;14.70;5.80;;;;;;5004411;28;20463;-63
2023/05/31 01:32:38;;;;;;;6.77;2.30;;;14.70;5.80;;;;;;5004555;28;20526;-63
2023/05/31 01:35:05;;;;;;;5.83;2.53;;;14.60;5.70;;;;;;5005978;28;21045;-63
2023/05/31 01:37:32;;;;;;;8.43;2.50;;;14.50;5.70;;;;;;5006399;28;20455;-63
2023/05/31 01:39:59;;;;;;;6.83;2.57;;;14.50;5.80;;;;;;5007696;28;20456;-63
2023/05/31 01:42:26;;;;;;;7.40;2.83;;;14.50;6.00;;;;;;5006348;28;20510;-64
2023/05/31 01:44:57;;;;;;;5.50;2.37;;;14.50;6.00;;;;;;5007549;28;20475;-62
2023/05/31 01:47:24;;;;;;;6.17;2.67;;;14.50;6.00;;;;;;5004305;28;20471;-63
2023/05/31 01:49:51;;;;;;;5.43;2.30;;;14.50;6.00;;;;;;5007483;28;20467;-63
2023/05/31 01:52:20;;;;;;;9.40;2.23;;;14.40;6.00;;;;;;5011133;28;20470;-63
2023/05/31 01:54:46;;;;;;;6.87;2.20;;;14.40;6.00;;;;;;5005980;28;20494;-63
2023/05/31 01:57:15;;;;;;;8.03;2.33;;;14.40;6.00;;;;;;5011620;28;20474;-63
2023/05/31 01:59:43;;;;;;;10.50;3.10;;;14.40;6.00;;;;;;5011050;28;20460;-63
2023/05/31 02:02:11;;;;;;;6.67;2.03;;;14.40;6.00;;;;;;5006669;28;20483;-63
2023/05/31 02:04:38;;;;;;;7.93;2.27;;;14.40;6.00;;;;;;5010374;28;20502;-63
2023/05/31 02:07:05;;;;;;;7.37;2.30;;;14.30;5.90;;;;;;5009569;28;21055;-63
2023/05/31 02:09:32;;;;;;;6.33;1.83;;;14.30;6.10;;;;;;5011053;28;20470;-63
2023/05/31 02:11:58;;;;;;;5.80;2.20;;;14.20;6.10;;;;;;5009118;28;20463;-63
2023/05/31 02:14:25;;;;;;;6.50;2.43;;;14.20;6.30;;;;;;5009432;28;20490;-63
2023/05/31 02:16:52;;;;;;;8.23;2.10;;;14.20;6.30;;;;;;5011137;28;20459;-63
2023/05/31 02:19:25;;;;;;;8.00;2.70;;;14.20;6.40;;;;;;5008045;28;20471;-63
2023/05/31 02:21:52;;;;;;;8.37;2.10;;;14.10;6.50;;;;;;5006995;28;20467;-63
2023/05/31 02:24:18;;;;;;;5.67;2.63;;;14.10;6.80;;;;;;5010204;28;20460;-63
2023/05/31 02:26:45;;;;;;;7.93;3.17;;;14.10;7.00;;;;;;5011280;28;20870;-64
2023/05/31 02:29:12;;;;;;;5.43;2.30;;;14.00;7.00;;;;;;5011692;28;20460;-63
2023/05/31 02:31:38;;;;;;;8.53;2.50;;;14.00;7.10;;;;;;5006820;28;20476;-63
2023/05/31 02:34:05;;;;;;;7.60;2.33;;;14.00;7.40;;;;;;5009528;28;20483;-63
2023/05/31 02:36:33;;;;;;;5.37;2.13;;;14.00;7.60;;;;;;5009943;28;20471;-63
2023/05/31 02:39:00;;;;;;;7.17;2.57;;;14.00;7.70;;;;;;5011847;28;20471;-63
2023/05/31 02:41:27;;;;;;;5.33;1.83;;;14.00;7.60;;;;;;5009780;28;20459;-64
2023/05/31 02:43:53;;;;;;;6.37;2.50;;;13.90;7.70;;;;;;5010478;28;20452;-63
2023/05/31 02:46:20;;;;;;;6.33;2.30;;;14.00;7.60;;;;;;5010112;28;20477;-64
2023/05/31 02:48:47;;;;;;;8.23;2.73;;;13.90;7.90;;;;;;5009392;28;21031;-63
2023/05/31 02:51:13;;;;;;;5.47;2.43;;;13.90;8.10;;;;;;5010889;28;20463;-62
2023/05/31 02:53:41;;;;;;;5.90;2.10;;;13.90;8.30;;;;;;5010252;28;20488;-62
2023/05/31 02:56:09;;;;;;;6.10;2.60;;;13.90;8.10;;;;;;5009258;28;20483;-64
2023/05/31 02:58:35;;;;;;;8.43;2.83;;;13.90;8.30;;;;;;5009956;28;21173;-63
2023/05/31 03:01:02;;;;;;;11.10;3.00;;;13.80;8.40;;;;;;5009791;28;20480;-63
2023/05/31 03:03:29;;;;;;;6.40;2.73;;;13.80;8.30;;;;;;5009772;28;21147;-63
2023/05/31 03:05:56;;;;;;;5.73;2.27;;;13.80;8.50;;;;;;5007383;28;20471;-63
2023/05/31 03:08:22;;;;;;;6.53;2.73;;;13.80;8.60;;;;;;5007627;28;20460;-62
2023/05/31 03:10:50;;;;;;;8.27;3.23;;;13.70;8.70;;;;;;5010200;28;20459;-63
2023/05/31 03:13:17;;;;;;;7.83;2.77;;;13.70;8.60;;;;;;5017471;28;20464;-63
2023/05/31 03:15:44;;;;;;;6.20;2.37;;;13.70;8.90;;;;;;5011544;28;20475;-63
2023/05/31 03:18:11;;;;;;;7.50;3.47;;;13.60;9.20;;;;;;5017260;28;20989;-63
2023/05/31 03:20:39;;;;;;;6.73;2.43;;;13.60;9.20;;;;;;5026901;23;20493;-61
2023/05/31 03:23:06;;;;;;;6.23;2.33;;;13.60;9.30;;;;;;5044144;28;20470;-61
2023/05/31 03:25:33;;;;;;;5.10;2.33;;;13.50;9.50;;;;;;5043257;28;20496;-61
2023/05/31 03:28:01;;;;;;;7.20;3.13;;;13.50;9.80;;;;;;5041406;28;20888;-61
2023/05/31 03:30:29;;;;;;;5.60;2.33;;;13.50;9.90;;;;;;5045020;28;20478;-61
2023/05/31 03:32:56;;;;;;;6.63;2.70;;;13.40;10.10;;;;;;5041484;28;20466;-62
2023/05/31 03:35:23;;;;;;;8.33;2.27;;;13.40;10.40;;;;;;5040217;28;20489;-62
2023/05/31 03:37:49;;;;;;;8.00;2.43;;;13.40;10.40;;;;;;5042718;28;20466;-62
2023/05/31 03:40:16;;;;;;;8.37;2.80;;;13.40;10.70;;;;;;5046307;28;20474;-62
2023/05/31 03:42:43;;;;;;;5.87;2.27;;;13.40;10.70;;;;;;5042960;28;20458;-62
2023/05/31 03:45:11;;;;;;;8.60;3.17;;;13.30;10.80;;;;;;5038075;28;20881;-62
2023/05/31 03:47:38;;;;;;;7.00;2.60;;;13.30;10.80;;;;;;5044098;28;21037;-62
2023/05/31 03:50:06;;;;;;;9.00;3.00;;;13.30;11.10;;;;;;5044051;28;20492;-62
2023/05/31 03:52:32;;;;;;;6.60;2.77;;;13.30;11.20;;;;;;5039275;28;20517;-62
2023/05/31 03:54:59;;;;;;;8.37;3.50;;;13.30;11.30;;;;;;5041405;28;20493;-62
2023/05/31 03:57:26;;;;;;;6.30;2.47;;;13.30;11.30;;;;;;5040130;28;20474;-63
2023/05/31 03:59:53;;;;;;;11.33;3.70;;;13.30;11.50;;;;;;5039440;28;20467;-63
2023/05/31 04:02:21;;;;;;;7.20;3.23;;;13.30;11.70;;;;;;5045695;28;20478;-63
2023/05/31 04:04:47;;;;;;;8.97;3.60;;;13.30;11.80;;;;;;5047641;28;20474;-63
2023/05/31 04:07:15;;;;;;;9.70;3.77;;;13.30;11.90;;;;;;5049203;28;20466;-63
2023/05/31 04:09:41;;;;;;;7.63;2.93;;;13.30;12.00;;;;;;5049012;28;20512;-63
2023/05/31 04:12:09;;;;;;;6.57;3.00;;;13.30;12.10;;;;;;5038800;28;20462;-63
2023/05/31 04:14:35;;;;;;;7.87;3.07;;;13.40;12.00;;;;;;5045393;28;20482;-63
2023/05/31 04:17:02;;;;;;;7.10;2.93;;;13.40;12.00;;;;;;5044607;28;20467;-63
2023/05/31 04:19:30;;;;;;;8.10;2.70;;;13.40;12.00;;;;;;5043426;28;20469;-65
2023/05/31 04:21:57;;;;;;;7.70;2.90;;;13.40;12.30;;;;;;5041641;28;20465;-65
2023/05/31 04:24:23;;;;;;;8.80;3.27;;;13.50;12.40;;;;;;5041102;28;20473;-65
2023/05/31 04:26:50;;;;;;;8.70;2.90;;;13.60;12.50;;;;;;5047099;28;20466;-63
2023/05/31 04:29:18;;;;;;;6.63;2.00;;;14.50;11.50;;;;;;5046061;28;20465;-63
2023/05/31 04:31:45;;;;;;;6.47;2.53;;;15.80;9.20;;;;;;5039825;28;20700;-63
2023/05/31 04:34:18;;;;;;;8.63;2.73;;;16.80;7.40;;;;;;5043762;28;20577;-63
2023/05/31 04:36:48;;;;;;;9.13;2.90;;;17.90;5.30;;;;;;5045747;28;20953;-63
2023/05/31 04:39:15;;;;;;;8.23;3.00;;;18.80;3.80;;;;;;5045894;28;21146;-63
2023/05/31 04:41:42;;;;;;;6.00;2.40;;;19.60;2.00;;;;;;5046967;28;20963;-64
2023/05/31 04:44:09;;;;;;;6.57;2.50;;;20.10;1.00;;;;;;5040242;28;20473;-63
2023/05/31 04:46:36;;;;;;;9.03;2.40;;;19.80;1.00;;;;;;5047935;28;20467;-63
2023/05/31 04:49:04;;;;;;;5.97;2.70;;;19.00;2.00;;;;;;5038202;28;20463;-63
2023/05/31 04:51:32;;;;;;;7.70;2.43;;;18.60;3.20;;;;;;5043121;28;20462;-63
2023/05/31 04:54:01;;;;;;;6.20;3.03;;;19.60;2.30;;;;;;5044280;28;20505;-63
2023/05/31 04:56:28;;;;;;;5.40;2.43;;;20.90;1.00;;;;;;5135089;23;20490;-63
2023/05/31 04:58:55;;;;;;;9.37;2.60;;;22.20;1.00;;;;;;5043836;28;20923;-64
2023/05/31 05:01:22;;;;;;;6.67;2.30;;;23.40;1.00;;;;;;5047438;28;20462;-63
2023/05/31 05:03:51;;;;;;;6.77;2.50;;;24.40;1.00;;;;;;5048444;28;20557;-63
2023/05/31 05:06:18;;;;;;;5.63;2.40;;;25.30;1.00;;;;;;5010970;23;20502;-66
2023/05/31 05:08:46;;;;;;;8.13;3.10;;;26.10;1.00;;;;;;4997526;28;20484;-65
2023/05/31 05:11:14;;;;;;;8.10;2.97;;;26.90;1.00;;;;;;4979262;28;20461;-65
2023/05/31 05:13:41;;;;;;;5.47;2.50;;;27.50;1.00;;;;;;4984170;28;20551;-65
2023/05/31 05:16:08;;;;;;;9.03;2.93;;;28.20;1.00;;;;;;4982479;28;20509;-65
2023/05/31 05:18:35;;;;;;;7.27;2.57;;;29.00;1.00;;;;;;4986921;28;20483;-65
2023/05/31 05:21:03;;;;;;;5.80;2.23;;;29.60;1.00;;;;;;4978706;28;20465;-65
2023/05/31 05:23:31;;;;;;;5.17;2.20;;;30.20;1.00;;;;;;4986485;28;20472;-65
2023/05/31 05:25:58;;;;;;;11.00;2.70;;;30.80;1.00;;;;;;4981143;28;20461;-65
2023/05/31 05:28:26;;;;;;;6.40;2.27;;;31.30;1.00;;;;;;4988011;28;20491;-65
2023/05/31 05:30:53;;;;;;;6.30;2.37;;;32.00;1.00;;;;;;4979187;28;20465;-65
2023/05/31 05:33:20;;;;;;;6.37;2.47;;;32.60;1.00;;;;;;4972673;28;20464;-65
2023/05/31 05:35:46;;;;;;;7.37;2.50;;;33.20;1.00;;;;;;4988231;28;20491;-66
2023/05/31 05:38:13;;;;;;;7.60;2.50;;;33.60;1.00;;;;;;4985759;28;20467;-66
2023/05/31 05:40:40;;;;;;;6.33;2.50;;;34.10;1.00;;;;;;4981457;28;20826;-67
2023/05/31 05:43:07;;;;;;;6.20;2.30;;;34.50;1.00;;;;;;4984296;28;20472;-67
2023/05/31 05:45:35;;;;;;;6.63;2.60;;;35.00;1.00;;;;;;4987698;28;20943;-66
2023/05/31 05:48:02;;;;;;;6.23;2.23;;;35.30;1.00;;;;;;4986828;28;20494;-66
2023/05/31 05:50:28;;;;;;;4.47;1.97;;;35.60;1.00;;;;;;4979289;28;20468;-66
2023/05/31 05:52:55;;;;;;;6.80;2.30;;;36.10;1.00;;;;;;4981763;28;20465;-67
2023/05/31 05:55:22;;;;;;;5.13;2.40;;;36.50;1.00;;;;;;4988406;28;21007;-66
2023/05/31 05:57:51;;;;;;;6.20;2.83;;;36.90;1.00;;;;;;4979221;28;20464;-67
2023/05/31 06:00:18;;;;;;;5.80;2.63;;;37.50;1.00;;;;;;4979964;28;20485;-65
2023/05/31 06:02:47;;;;;;;7.27;2.17;;;38.10;1.00;;;;;;4978484;28;20460;-66
2023/05/31 06:05:14;;;;;;;6.30;2.70;;;38.60;1.00;;;;;;4988838;28;20460;-65
2023/05/31 06:07:40;;;;;;;7.13;2.93;;;39.00;1.00;;;;;;4985456;28;20825;-65
2023/05/31 06:10:09;;;;;;;6.97;2.60;;;39.20;1.00;;;;;;4978791;28;20845;-66
2023/05/31 06:12:35;;;;;;;5.83;2.40;;;39.50;1.00;;;;;;4973083;28;20553;-66
2023/05/31 06:15:02;;;;;;;4.83;2.17;;;39.90;1.00;;;;;;4988361;28;20476;-66
2023/05/31 06:17:29;;;;;;;7.40;2.50;;;40.30;1.00;;;;;;4983702;28;20461;-66
2023/05/31 06:19:57;;;;;;;7.77;1.97;;;40.80;1.00;;;;;;4978276;28;20496;-66
2023/05/31 06:22:24;;;;;;;5.17;2.37;;;41.10;1.00;;;;;;4982121;28;20464;-66
2023/05/31 06:24:51;;;;;;;7.00;2.53;;;41.20;1.00;;;;;;4988661;28;20476;-66
2023/05/31 06:27:17;;;;;;;7.70;2.70;;;41.40;1.00;;;;;;4973425;28;20457;-66
2023/05/31 06:29:45;;;;;;;6.10;2.23;;;41.70;1.00;;;;;;4987823;28;20898;-66
2023/05/31 06:32:12;;;;;;;4.63;2.57;;;42.10;1.00;;;;;;4986258;28;21073;-66
2023/05/31 06:34:38;;;;;;;8.40;2.33;;;42.20;1.00;;;;;;4989259;28;20470;-66
2023/05/31 06:37:08;;;;;;;5.63;2.50;;;42.50;1.00;;;;;;4983462;28;20450;-66
2023/05/31 06:39:35;;;;;;;6.80;2.43;;;42.20;1.00;;;;;;4986944;28;20507;-66
2023/05/31 06:42:02;;;;;;;6.03;2.57;;;42.40;1.00;;;;;;4985020;28;20454;-66
2023/05/31 06:44:28;;;;;;;6.00;2.20;;;42.80;1.00;;;;;;4982607;28;20464;-67
2023/05/31 06:46:55;;;;;;;4.73;2.30;;;43.10;1.00;;;;;;4987598;28;20472;-66
2023/05/31 06:49:22;;;;;;;5.17;2.20;;;43.70;1.00;;;;;;4984046;28;20477;-66
2023/05/31 06:51:49;;;;;;;4.70;2.30;;;44.40;1.00;;;;;;4991839;28;20463;-66
2023/05/31 06:54:17;;;;;;;7.40;2.10;;;44.60;1.00;;;;;;4990502;28;20453;-66
2023/05/31 06:56:44;;;;;;;5.17;2.80;;;44.30;1.00;;;;;;4987153;28;20482;-67
2023/05/31 06:59:11;;;;;;;6.10;2.20;;;44.30;1.00;;;;;;4994885;28;20570;-66
2023/05/31 07:01:37;;;;;;;6.30;2.97;;;44.40;1.00;;;;;;4990649;28;20475;-66
2023/05/31 07:04:04;;;;;;;6.80;2.40;;;43.60;1.00;;;;;;4989982;28;20464;-66
2023/05/31 07:06:31;;;;;;;7.10;2.60;;;43.10;1.00;;;;;;5012827;28;21216;-66
2023/05/31 07:08:58;;;;;;;6.80;3.43;;;42.70;1.00;;;;;;5006741;28;20487;-66
2023/05/31 07:11:26;;;;;;;9.03;2.90;;;42.20;1.00;;;;;;5010083;28;20463;-66
2023/05/31 07:13:54;;;;;;;7.33;2.80;;;42.10;1.00;;;;;;5006363;28;20462;-66
2023/05/31 07:16:20;;;;;;;7.60;2.80;;;41.80;1.00;;;;;;5004962;28;20528;-66
2023/05/31 07:18:47;;;;;;;8.00;2.57;;;42.40;1.00;;;;;;5008533;28;20498;-66
2023/05/31 07:21:14;;;;;;;5.30;2.47;;;42.80;1.00;;;;;;5005871;28;20460;-66
2023/05/31 07:23:41;;;;;;;5.83;2.93;;;43.00;1.00;;;;;;5005083;28;20816;-66
2023/05/31 07:26:07;;;;;;;7.70;2.40;;;42.90;1.00;;;;;;5006093;28;20467;-66
2023/05/31 07:28:36;;;;;;;8.00;3.17;;;42.70;1.00;;;;;;5008487;28;20506;-66
2023/05/31 07:31:03;;;;;;;6.40;2.53;;;42.90;1.00;;;;;;5006819;28;20761;-66
2023/05/31 07:33:30;;;;;;;6.67;2.80;;;43.10;1.00;;;;;;5003978;28;20460;-66
2023/05/31 07:35:59;;;;;;;5.80;2.90;;;42.60;1.00;;;;;;5000861;28;20484;-66
2023/05/31 07:38:26;;;;;;;6.73;2.90;;;42.50;1.00;;;;;;5006548;28;20598;-66
2023/05/31 07:40:53;;;;;;;7.00;2.87;;;42.60;1.00;;;;;;5003108;28;20458;-66
2023/05/31 07:43:21;;;;;;;6.73;2.30;;;43.00;1.00;;;;;;5005982;28;20467;-66
2023/05/31 07:45:49;;;;;;;7.53;2.90;;;43.10;1.00;;;;;;5005958;28;20555;-66
2023/05/31 07:48:17;;;;;;;7.97;2.67;;;43.70;1.00;;;;;;5006021;28;20905;-66
2023/05/31 07:50:44;;;;;;;6.47;2.33;;;44.50;1.00;;;;;;4994281;28;20459;-66
2023/05/31 07:53:10;;;;;;;6.30;2.50;;;44.80;1.00;;;;;;4995868;28;20787;-66
2023/05/31 07:55:38;;;;;;;10.23;2.40;;;44.60;1.00;;;;;;5009019;28;20839;-66
2023/05/31 07:58:05;;;;;;;8.87;2.63;;;43.80;1.00;;;;;;5004700;28;20511;-66
2023/05/31 08:00:32;;;;;;;5.93;2.70;;;43.10;1.00;;;;;;5003820;28;20503;-66
2023/05/31 08:03:00;;;;;;;6.87;2.60;;;43.00;1.00;;;;;;4992409;28;21017;-66
2023/05/31 08:05:27;;;;;;;6.27;3.13;;;42.30;1.00;;;;;;5001214;28;20463;-66
2023/05/31 08:07:54;;;;;;;6.23;2.50;;;42.00;1.00;;;;;;5009809;28;20513;-66
2023/05/31 08:10:20;;;;;;;7.03;2.70;;;42.00;1.00;;;;;;5004638;28;20490;-65
2023/05/31 08:12:48;;;;;;;6.33;2.77;;;42.20;1.00;;;;;;5013391;28;20962;-66
2023/05/31 08:15:15;;;;;;;6.70;3.20;;;42.00;1.00;;;;;;5001981;28;20544;-66
2023/05/31 08:17:43;;;;;;;6.40;3.00;;;42.10;1.00;;;;;;5015373;28;20543;-66
2023/05/31 08:20:13;;;;;;;5.73;2.53;;;42.20;1.00;;;;;;4993202;28;20499;-66
2023/05/31 08:22:42;;;;;;;9.40;2.63;;;42.30;1.00;;;;;;5010189;28;20455;-66
2023/05/31 08:25:12;;;;;;;7.73;3.40;;;42.40;1.00;;;;;;5003722;28;20460;-69
2023/05/31 08:27:39;;;;;;;11.80;2.70;;;42.50;1.00;;;;;;5004487;28;20464;-69
2023/05/31 08:30:09;;;;;;;7.17;2.70;;;42.40;1.00;;;;;;5003209;28;20499;-68
2023/05/31 08:32:36;;;;;;;5.70;3.13;;;42.60;1.00;;;;;;5005295;28;20466;-70
2023/05/31 08:35:03;;;;;;;5.83;2.47;;;42.60;1.00;;;;;;5005574;28;20454;-69
2023/05/31 08:37:31;;;;;;;7.03;2.87;;;43.30;1.00;;;;;;5006211;28;20480;-69
2023/05/31 08:39:58;;;;;;;6.53;2.63;;;44.30;1.00;;;;;;5008057;28;20869;-69
2023/05/31 08:42:29;;;;;;;7.23;2.60;;;45.50;1.00;;;;;;5008213;28;20463;-69
2023/05/31 08:44:56;;;;;;;6.63;2.33;;;46.40;1.00;;;;;;4999551;28;20452;-69
2023/05/31 08:47:27;;;;;;;5.83;2.60;;;46.50;1.00;;;;;;5011224;28;20460;-69
2023/05/31 08:49:56;;;;;;;6.77;2.73;;;47.40;1.00;;;;;;5006654;28;20504;-69
2023/05/31 08:52:23;;;;;;;6.00;2.70;;;47.90;1.00;;;;;;5006430;28;20452;-70
2023/05/31 08:54:53;;;;;;;8.20;3.10;;;48.40;1.00;;;;;;5010234;28;20961;-69
2023/05/31 08:57:20;;;;;;;7.10;2.47;;;48.80;1.00;;;;;;5001037;28;21018;-69
2023/05/31 08:59:48;;;;;;;7.00;2.63;;;49.40;1.00;;;;;;5008247;28;20475;-70
2023/05/31 09:02:17;;;;;;;5.93;2.73;;;49.00;1.00;;;;;;4997753;28;20834;-69
2023/05/31 09:04:45;;;;;;;6.63;2.40;;;49.10;1.00;;;;;;5008843;28;20466;-69
2023/05/31 09:07:11;;;;;;;7.20;3.30;;;49.00;1.00;;;;;;5008604;28;20462;-70
2023/05/31 09:09:38;;;;;;;6.57;3.03;;;48.70;1.00;;;;;;5007386;28;20491;-70
2023/05/31 09:12:07;;;;;;;6.63;2.63;;;48.60;1.00;;;;;;5003720;28;20468;-70
2023/05/31 09:14:34;;;;;;;5.67;3.00;;;48.50;1.00;;;;;;5011807;28;20462;-69
2023/05/31 09:17:01;;;;;;;9.07;3.70;;;47.80;1.00;;;;;;5012032;28;21009;-69
2023/05/31 09:19:28;;;;;;;6.00;2.50;;;46.50;1.00;;;;;;5004570;28;20488;-69
2023/05/31 09:21:55;;;;;;;5.90;2.60;;;46.40;1.00;;;;;;5029681;23;20498;-64
2023/05/31 09:24:22;;;;;;;7.03;3.00;;;45.80;1.00;;;;;;5026773;28;20498;-64
2023/05/31 09:26:50;;;;;;;9.80;3.43;;;44.70;1.00;;;;;;5026816;28;20547;-64
2023/05/31 09:29:18;;;;;;;8.93;3.93;;;43.10;1.00;;;;;;5020042;28;20827;-64
2023/05/31 09:31:45;;;;;;;5.20;2.47;;;40.80;1.00;;;;;;5024902;28;20493;-64
2023/05/31 09:34:26;;;;;;;6.50;3.03;;;38.70;1.00;;;;;;5022203;28;20466;-64
2023/05/31 09:36:53;;;;;;;5.80;2.30;;;37.30;1.00;;;;;;5023900;28;20510;-64
2023/05/31 09:39:20;;;;;;;8.80;3.50;;;35.30;1.00;;;;;;5023829;28;20470;-64
2023/05/31 09:41:50;;;;;;;8.10;2.83;;;33.60;1.00;;;;;;5029161;28;20495;-64
2023/05/31 09:44:19;;;;;;;8.00;3.30;;;32.40;1.00;;;;;;5024768;28;20459;-64
2023/05/31 09:46:46;;;;;;;7.03;3.10;;;31.50;1.00;;;;;;5023995;28;20463;-64
2023/05/31 09:49:13;;;;;;;8.00;3.30;;;30.70;1.00;;;;;;5027586;28;20990;-64
2023/05/31 09:51:40;;;;;;;7.43;2.97;;;30.00;1.00;;;;;;5025299;28;20465;-64
2023/05/31 09:54:12;;;;;;;5.73;2.60;;;29.70;1.00;;;;;;5022763;28;20939;-63
2023/05/31 09:56:40;;;;;;;6.03;3.17;;;29.00;1.00;;;;;;5023909;28;20471;-64
2023/05/31 09:59:07;;;;;;;7.80;3.10;;;28.40;1.00;;;;;;5027478;28;21019;-64
2023/05/31 10:01:36;;;;;;;8.87;2.50;;;27.90;1.00;;;;;;5025268;28;21016;-64
2023/05/31 10:04:04;;;;;;;9.60;2.97;;;27.50;1.00;;;;;;5022046;28;20490;-64
2023/05/31 10:06:34;;;;;;;8.60;2.73;;;27.10;1.00;;;;;;5025235;28;20546;-64
2023/05/31 10:09:02;;;;;;;9.83;3.17;;;26.70;1.00;;;;;;5026443;28;20483;-63
2023/05/31 10:11:34;;;;;;;8.63;2.93;;;26.40;1.00;;;;;;5027903;28;21066;-63
2023/05/31 10:14:04;;;;;;;10.00;2.53;;;26.20;1.00;;;;;;5031006;28;20558;-64
2023/05/31 10:16:36;;;;;;;7.43;2.80;;;26.00;1.00;;;;;;5027240;28;20483;-64
2023/05/31 10:19:07;;;;;;;9.90;3.00;;;25.90;1.00;;;;;;5029650;28;20494;-64
2023/05/31 10:21:39;;;;;;;8.93;2.80;;;25.80;1.00;;;;;;5030094;28;20478;-64
2023/05/31 10:24:09;;;;;;;8.30;3.00;;;25.70;1.00;;;;;;5028127;28;20466;-64
2023/05/31 10:26:43;;;;;;;5.97;2.60;;;25.70;1.00;;;;;;5029458;28;20454;-64
2023/05/31 10:29:16;;;;;;;6.07;3.03;;;25.60;1.00;;;;;;5029657;28;20814;-64
2023/05/31 10:31:49;;;;;;;8.37;3.10;;;25.40;1.00;;;;;;5030217;28;21010;-63
2023/05/31 10:34:21;;;;;;;7.43;2.80;;;25.20;1.00;;;;;;5028405;28;20467;-64
2023/05/31 10:36:49;;;;;;;8.67;3.07;;;25.00;1.00;;;;;;5030485;28;21038;-64
2023/05/31 10:39:25;;;;;;;6.57;3.20;;;25.00;1.00;;;;;;5028483;28;20474;-63
2023/05/31 10:41:58;;;;;;;6.60;2.73;;;24.90;1.00;;;;;;5031757;28;20462;-64
2023/05/31 10:44:33;;;;;;;8.50;3.93;;;24.90;1.00;;;;;;5036403;28;20487;-65
2023/05/31 10:47:09;;;;;;;7.97;2.90;;;24.80;1.00;;;;;;5032138;28;20549;-64
2023/05/31 10:49:37;;;;;;;8.90;3.27;;;24.70;1.00;;;;;;5030061;28;20457;-64
2023/05/31 10:52:09;;;;;;;6.30;2.50;;;24.60;1.00;;;;;;5026792;28;20450;-64
2023/05/31 10:54:36;;;;;;;8.30;3.50;;;24.50;1.00;;;;;;5031517;28;20550;-63
2023/05/31 10:57:05;;;;;;;6.60;2.70;;;24.40;1.00;;;;;;5023933;28;20483;-63
2023/05/31 10:59:41;;;;;;;13.10;3.07;;;24.30;1.00;;;;;;5030576;28;20479;-65
2023/05/31 11:02:10;;;;;;;9.77;3.30;;;24.20;1.00;;;;;;5029948;28;20497;-64
2023/05/31 11:04:37;;;;;;;7.80;2.90;;;24.10;1.00;;;;;;5032419;28;20997;-65
2023/05/31 11:07:17;;;;;;;6.70;2.63;;;24.00;1.00;;;;;;5028854;28;20458;-63
2023/05/31 11:09:56;;;;;;;7.00;3.00;;;23.90;1.00;;;;;;5024503;28;20470;-64
2023/05/31 11:12:32;;;;;;;6.50;2.80;;;23.70;1.00;;;;;;5027056;28;20845;-64
2023/05/31 11:15:05;;;;;;;6.70;2.77;;;23.60;1.00;;;;;;5028940;28;20489;-66
2023/05/31 11:17:50;;;;;;;8.07;2.77;;;23.50;1.00;;;;;;5027031;28;20550;-65
2023/05/31 11:20:18;;;;;;;6.03;2.90;;;23.60;1.00;;;;;;5029173;28;20477;-65
2023/05/31 11:22:45;;;;;;;8.37;3.40;;;23.60;1.00;;;;;;5026969;28;20475;-65
2023/05/31 11:25:19;;;;;;;9.30;2.73;;;23.60;1.00;;;;;;5027898;28;20486;-63
2023/05/31 11:27:48;;;;;;;8.47;3.00;;;23.60;1.00;;;;;;5025562;28;20450;-64
2023/05/31 11:30:16;;;;;;;9.00;2.90;;;23.70;1.00;;;;;;5031236;28;20493;-65
2023/05/31 11:33:02;;;;;;;6.70;2.80;;;23.70;1.00;;;;;;5030169;28;20455;-64
2023/05/31 11:35:33;;;;;;;7.10;2.83;;;23.70;1.00;;;;;;5028422;28;20565;-64
2023/05/31 11:38:06;;;;;;;9.60;2.97;;;23.80;1.00;;;;;;5033812;28;20487;-63
2023/05/31 11:40:35;;;;;;;15.40;3.10;;;23.80;1.00;;;;;;5028423;28;20544;-64
2023/05/31 11:43:11;;;;;;;7.93;3.30;;;23.80;1.00;;;;;;5026344;28;20455;-64
2023/05/31 11:45:47;;;;;;;8.30;3.13;;;23.80;1.00;;;;;;5029006;28;20923;-63
2023/05/31 11:48:34;;;;;;;8.37;3.03;;;23.80;1.00;;;;;;5027383;28;20453;-65
2023/05/31 11:51:02;;;;;;;8.73;2.83;;;23.80;1.00;;;;;;5030077;28;20454;-66
2023/05/31 11:53:30;;;;;;;6.30;2.80;;;23.80;1.00;;;;;;5029611;28;20467;-65
2023/05/31 11:55:58;;;;;;;5.93;2.43;;;23.80;1.00;;;;;;5029318;28;20871;-65
2023/05/31 11:58:26;;;;;;;6.70;2.20;;;23.70;1.00;;;;;;5030469;28;20479;-65
2023/05/31 12:00:57;;;;;;;6.13;2.33;;;23.70;1.00;;;;;;5027846;28;20485;-64
2023/05/31 12:03:24;;;;;;;6.63;2.53;;;23.70;1.00;;;;;;5024154;28;20463;-64
2023/05/31 12:05:57;;;;;;;8.00;2.50;;;23.70;1.00;;;;;;5028463;28;20483;-63
2023/05/31 12:08:23;;;;;;;7.60;2.97;;;23.70;1.00;;;;;;5030238;28;20454;-64
2023/05/31 12:10:50;;;;;;;7.10;2.70;;;23.70;1.00;;;;;;5029976;28;20466;-64
2023/05/31 12:13:18;;;;;;;6.30;2.70;;;23.70;1.00;;;;;;5029695;28;20466;-64
2023/05/31 12:15:53;;;;;;;8.00;2.67;;;23.60;1.00;;;;;;5029452;28;20502;-64
2023/05/31 12:18:20;;;;;;;7.93;3.10;;;23.60;1.00;;;;;;5029727;28;20507;-64
2023/05/31 12:20:47;;;;;;;4.80;2.17;;;23.60;1.00;;;;;;5028499;28;20469;-64
2023/05/31 12:23:18;;;;;;;7.43;2.30;;;23.70;1.00;;;;;;5028322;28;20581;-64
2023/05/31 12:25:46;;;;;;;12.00;2.80;;;23.70;1.00;;;;;;5028877;28;20471;-64
2023/05/31 12:28:13;;;;;;;7.03;2.90;;;23.70;1.00;;;;;;5029157;28;20483;-64
2023/05/31 12:30:47;;;;;;;10.50;2.70;;;23.70;1.00;;;;;;5025298;28;21210;-64
2023/05/31 12:33:14;;;;;;;7.10;2.80;;;23.70;1.00;;;;;;5028144;28;20462;-64
2023/05/31 12:35:42;;;;;;;8.37;3.10;;;23.70;1.00;;;;;;5028556;28;20482;-64
2023/05/31 12:38:09;;;;;;;6.40;2.13;;;23.60;1.00;;;;;;5029308;28;21051;-63
2023/05/31 12:40:40;;;;;;;6.67;2.20;;;23.60;1.00;;;;;;5028760;28;20493;-63
2023/05/31 12:43:07;;;;;;;10.83;2.43;;;23.60;1.00;;;;;;5024925;28;20498;-65
2023/05/31 12:45:39;;;;;;;6.50;2.57;;;23.70;1.00;;;;;;5028554;28;20491;-64
2023/05/31 12:48:08;;;;;;;10.80;3.30;;;23.70;1.00;;;;;;5023008;28;20498;-64
2023/05/31 12:50:35;;;;;;;7.37;2.93;;;23.70;1.00;;;;;;5028605;28;20830;-64
2023/05/31 12:53:02;;;;;;;9.50;2.77;;;23.70;1.00;;;;;;5027356;28;20463;-64
2023/05/31 12:55:28;;;;;;;9.20;2.87;;;23.70;1.00;;;;;;5028140;28;20483;-63
2023/05/31 12:57:57;;;;;;;9.07;2.50;;;23.70;1.00;;;;;;5027688;28;20474;-64
2023/05/31 13:00:24;;;;;;;7.00;2.80;;;23.70;1.00;;;;;;5023156;28;20463;-63